Elmora, New Jersey
Current Conditions -  °F | °C
As of 10:55 PM on Saturday 25 Oct 2014 (Local Time) from KLDJ Reporting Station
Clear Clear  
Wind Chill: 18°   Ceiling: Unl
Heat Index: 18°   Visibility: 10mi
Dew Point:   Wind: 8mph
Humidity: 54%   Direction: 280°W
Pressure: 29.62"   Gusts: NA
Location:  40.6531°N, 74.2169°W
Report Text: KLDJ 260255Z AUTO 28007KT 10SM CLR 18/09 A2962 RMK AO2 T01820088
Loading
Personal Weather Stations






























Interactive Weather Map
Tropical Storm Tracking
New forecast layout! Learn more

10-Day Weather Forecast

Advertisements
Track Severe Weather on mobile